createdAt,value
2018-06-02T00:00:03.920Z,4.22
2018-06-02T00:01:09.695Z,3.53
2018-06-02T00:02:15.456Z,3.62
2018-06-02T00:03:21.214Z,3.90
2018-06-02T00:04:27.020Z,3.80
2018-06-02T00:05:32.786Z,3.90
2018-06-02T00:06:38.556Z,4.22
2018-06-02T00:07:44.427Z,4.57
2018-06-02T00:08:50.182Z,4.07
2018-06-02T00:09:56.754Z,3.50
2018-06-02T00:11:02.515Z,4.28
2018-06-02T00:12:08.263Z,3.60
2018-06-02T00:13:14.253Z,4.20
2018-06-02T00:14:20.026Z,3.67
2018-06-02T00:15:25.808Z,3.62
2018-06-02T00:16:31.555Z,3.60
2018-06-02T00:17:38.185Z,3.50
2018-06-02T00:18:43.949Z,3.20
2018-06-02T00:19:49.708Z,3.50
2018-06-02T00:20:55.503Z,3.90
2018-06-02T00:22:01.263Z,3.35
2018-06-02T00:23:07.031Z,3.00
2018-06-02T00:24:12.459Z,3.60
2018-06-02T00:25:18.223Z,3.42
2018-06-02T00:26:23.998Z,3.42
2018-06-02T00:27:29.756Z,4.22
2018-06-02T00:28:35.802Z,3.30
2018-06-02T00:29:41.558Z,3.37
2018-06-02T00:30:47.390Z,2.95
2018-06-02T00:31:53.172Z,3.25
2018-06-02T00:32:58.950Z,3.50
2018-06-02T00:34:05.412Z,5.22
2018-06-02T00:35:11.202Z,3.80
2018-06-02T00:36:16.956Z,3.33
2018-06-02T00:37:22.843Z,4.18
2018-06-02T00:38:29.359Z,2.70
2018-06-02T00:39:35.130Z,3.33
2018-06-02T00:40:41.656Z,2.72
2018-06-02T00:41:48.216Z,2.83
2018-06-02T00:42:54.010Z,3.17
2018-06-02T00:43:59.851Z,3.25
2018-06-02T00:45:05.267Z,3.45
2018-06-02T00:46:11.792Z,2.92
2018-06-02T00:47:17.555Z,2.92
2018-06-02T00:48:23.342Z,2.85
2018-06-02T00:49:29.100Z,2.50
2018-06-02T00:50:34.863Z,2.85
2018-06-02T00:51:40.628Z,3.67
2018-06-02T00:52:47.160Z,3.62
2018-06-02T00:53:52.936Z,2.87
2018-06-02T00:55:09.639Z,2.22
2018-06-02T00:56:16.409Z,1.98
2018-06-02T00:57:22.926Z,4.68
2018-06-02T00:58:28.680Z,2.37
2018-06-02T00:59:35.342Z,2.33
2018-06-02T01:00:42.611Z,2.83
2018-06-02T01:01:48.192Z,2.55
2018-06-02T01:02:53.955Z,2.30
2018-06-02T01:03:59.722Z,2.05
2018-06-02T01:05:05.174Z,2.17
2018-06-02T01:06:10.940Z,2.17
2018-06-02T01:07:18.197Z,1.90
2018-06-02T01:08:23.950Z,1.90
2018-06-02T01:09:29.704Z,2.10
2018-06-02T01:10:36.352Z,1.40
2018-06-02T01:11:48.880Z,1.80
2018-06-02T01:12:54.649Z,1.80
2018-06-02T01:14:00.415Z,1.73
2018-06-02T01:15:05.877Z,2.28
2018-06-02T01:16:13.083Z,1.48
2018-06-02T01:17:18.845Z,1.73
2018-06-02T01:18:24.616Z,1.80
2018-06-02T01:19:30.371Z,1.73
2018-06-02T01:20:36.960Z,1.95
2018-06-02T01:21:42.744Z,2.47
2018-06-02T01:22:48.515Z,1.30
2018-06-02T01:23:55.115Z,2.00
2018-06-02T01:25:00.881Z,1.92
2018-06-02T01:26:06.673Z,1.15
2018-06-02T01:27:13.231Z,1.70
2018-06-02T01:28:19.747Z,1.50
2018-06-02T01:29:25.519Z,1.30
2018-06-02T01:30:31.278Z,1.95
2018-06-02T01:31:37.799Z,1.48
2018-06-02T01:32:43.593Z,1.60
2018-06-02T01:33:50.117Z,1.30
2018-06-02T01:34:55.892Z,1.37
2018-06-02T01:36:01.652Z,1.30
2018-06-02T01:37:07.412Z,1.20
2018-06-02T01:38:13.232Z,1.40
2018-06-02T01:39:18.983Z,1.20
2018-06-02T01:40:24.767Z,1.20
2018-06-02T01:41:30.563Z,1.65
2018-06-02T01:42:36.100Z,1.75
2018-06-02T01:43:41.886Z,1.45
2018-06-02T01:44:47.648Z,1.65
2018-06-02T01:45:54.171Z,1.10
2018-06-02T01:46:59.980Z,1.00
2018-06-02T01:48:05.400Z,1.12
2018-06-02T01:49:11.177Z,1.33
2018-06-02T01:50:16.927Z,1.45
2018-06-02T01:51:22.684Z,1.60
2018-06-02T01:52:28.439Z,1.30
2018-06-02T01:53:34.200Z,1.40
2018-06-02T01:54:40.747Z,1.10
2018-06-02T01:55:47.279Z,1.50
2018-06-02T01:56:53.035Z,1.20
2018-06-02T01:57:58.807Z,1.10
2018-06-02T01:59:04.584Z,1.30
2018-06-02T02:00:10.394Z,1.37
2018-06-02T02:01:16.911Z,1.15
2018-06-02T02:02:22.668Z,1.33
2018-06-02T02:03:29.991Z,1.00
2018-06-02T02:04:35.762Z,1.00
2018-06-02T02:05:41.570Z,1.35
2018-06-02T02:06:47.339Z,1.60
2018-06-02T02:07:53.129Z,1.33
2018-06-02T02:08:58.887Z,1.55
2018-06-02T02:10:04.492Z,1.30
2018-06-02T02:11:10.268Z,1.30
2018-06-02T02:12:16.217Z,1.58
2018-06-02T02:13:21.963Z,1.73
2018-06-02T02:14:27.722Z,1.42
2018-06-02T02:15:33.474Z,1.70
2018-06-02T02:16:39.255Z,1.60
2018-06-02T02:17:45.812Z,1.87
2018-06-02T02:18:51.568Z,2.15
2018-06-02T02:19:58.100Z,1.87
2018-06-02T02:21:03.863Z,1.70
2018-06-02T02:22:10.426Z,1.80
2018-06-02T02:23:16.948Z,1.85
2018-06-02T02:24:23.026Z,1.85
2018-06-02T02:25:29.554Z,1.67
2018-06-02T02:26:35.354Z,1.65
2018-06-02T02:27:41.136Z,1.73
2018-06-02T02:28:46.890Z,1.90
2018-06-02T02:29:52.666Z,1.50
2018-06-02T02:30:59.186Z,1.70
2018-06-02T02:32:04.951Z,1.33
2018-06-02T02:33:11.524Z,2.10
2018-06-02T02:34:18.044Z,2.30
2018-06-02T02:35:23.855Z,2.40
2018-06-02T02:36:29.782Z,2.47
2018-06-02T02:37:36.303Z,3.35
2018-06-02T02:38:42.718Z,2.83
2018-06-02T02:39:48.478Z,2.75
2018-06-02T02:40:54.233Z,3.10
2018-06-02T02:41:59.995Z,3.08
2018-06-02T02:43:05.765Z,3.50
2018-06-02T02:44:12.312Z,3.70
2018-06-02T02:45:18.864Z,3.95
2018-06-02T02:46:24.616Z,3.45
2018-06-02T02:47:31.139Z,4.60
2018-06-02T02:48:36.907Z,3.37
2018-06-02T02:49:42.692Z,5.00
2018-06-02T02:50:48.459Z,4.10
2018-06-02T02:51:54.219Z,5.10
2018-06-02T02:53:00.031Z,5.75
2018-06-02T02:54:05.786Z,5.57
2018-06-02T02:55:11.566Z,5.25
2018-06-02T02:56:18.287Z,5.43
2018-06-02T02:57:24.047Z,6.43
2018-06-02T02:58:29.828Z,6.10
2018-06-02T02:59:35.583Z,5.43
2018-06-02T03:00:41.373Z,6.53
2018-06-02T03:01:47.116Z,7.12
2018-06-02T03:02:52.876Z,6.32
2018-06-02T03:03:59.423Z,5.70
2018-06-02T03:05:05.180Z,6.78
2018-06-02T03:06:11.735Z,6.78
2018-06-02T03:07:17.487Z,7.05
2018-06-02T03:08:24.012Z,7.57
2018-06-02T03:09:29.784Z,7.45
2018-06-02T03:10:36.319Z,6.85
2018-06-02T03:11:42.098Z,7.68
2018-06-02T03:12:48.376Z,7.05
2018-06-02T03:13:54.123Z,8.38
2018-06-02T03:14:59.884Z,8.50
2018-06-02T03:16:05.638Z,7.78
2018-06-02T03:17:11.412Z,7.95
2018-06-02T03:18:17.937Z,8.18
2018-06-02T03:19:23.694Z,8.50
2018-06-02T03:20:29.461Z,7.47
2018-06-02T03:21:35.979Z,8.25
2018-06-02T03:22:41.790Z,9.60
2018-06-02T03:23:47.543Z,8.15
2018-06-02T03:24:53.295Z,8.52
2018-06-02T03:25:59.054Z,8.85
2018-06-02T03:27:04.809Z,9.20
2018-06-02T03:28:10.599Z,9.10
2018-06-02T03:29:16.359Z,8.93
2018-06-02T03:30:22.539Z,9.32
2018-06-02T03:31:29.053Z,9.10
2018-06-02T03:32:34.825Z,8.93
2018-06-02T03:33:40.611Z,9.10
2018-06-02T03:34:47.128Z,8.80
2018-06-02T03:35:52.888Z,8.68
2018-06-02T03:36:58.643Z,9.73
2018-06-02T03:38:04.608Z,9.38
2018-06-02T03:39:10.387Z,9.43
2018-06-02T03:40:16.155Z,8.98
2018-06-02T03:41:22.679Z,9.45
2018-06-02T03:42:28.517Z,10.95
2018-06-02T03:43:33.982Z,8.50
2018-06-02T03:44:39.833Z,9.55
2018-06-02T03:45:45.666Z,9.60
2018-06-02T03:46:51.567Z,8.70
2018-06-02T03:47:57.398Z,9.30
2018-06-02T03:49:03.211Z,9.18
2018-06-02T03:50:09.008Z,9.05
2018-06-02T03:51:15.546Z,8.45
2018-06-02T03:52:21.316Z,9.90
2018-06-02T03:53:27.091Z,8.85
2018-06-02T03:54:33.611Z,9.80
2018-06-02T03:55:39.390Z,9.32
2018-06-02T03:56:45.142Z,9.77
2018-06-02T03:57:50.902Z,9.90
2018-06-02T03:58:57.579Z,9.82
2018-06-02T04:00:03.009Z,10.18
2018-06-02T04:01:08.903Z,10.07
2018-06-02T04:02:14.676Z,10.38
2018-06-02T04:03:20.439Z,9.25
2018-06-02T04:04:26.683Z,10.68
2018-06-02T04:05:34.000Z,9.10
2018-06-02T04:06:39.778Z,9.68
2018-06-02T04:07:45.544Z,9.50
2018-06-02T04:08:52.067Z,10.65
2018-06-02T04:09:57.823Z,10.25
2018-06-02T04:11:03.586Z,10.43
2018-06-02T04:12:10.139Z,10.15
2018-06-02T04:13:16.687Z,10.32
2018-06-02T04:14:23.221Z,10.07
2018-06-02T04:15:29.114Z,9.02
2018-06-02T04:16:35.648Z,10.55
2018-06-02T04:17:41.202Z,10.27
2018-06-02T04:18:47.737Z,10.35
2018-06-02T04:19:53.506Z,10.10
2018-06-02T04:21:00.033Z,10.15
2018-06-02T04:22:05.792Z,9.57
2018-06-02T04:23:11.600Z,9.80
2018-06-02T04:24:17.365Z,11.10
2018-06-02T04:25:23.682Z,9.98
2018-06-02T04:26:29.443Z,10.63
2018-06-02T04:27:35.213Z,9.80
2018-06-02T04:28:41.023Z,10.80
2018-06-02T04:29:46.792Z,11.38
2018-06-02T04:30:53.324Z,11.10
2018-06-02T04:31:59.104Z,10.38
2018-06-02T04:34:23.898Z,11.02
2018-06-02T04:35:30.435Z,10.57
2018-06-02T04:36:36.202Z,11.15
2018-06-02T04:37:42.731Z,10.40
2018-06-02T04:38:48.491Z,9.98
2018-06-02T04:39:55.057Z,10.65
2018-06-02T04:41:00.816Z,9.27
2018-06-02T04:42:07.332Z,9.50
2018-06-02T04:43:13.118Z,10.07
2018-06-02T04:44:19.901Z,9.55
2018-06-02T04:45:25.714Z,11.18
2018-06-02T04:46:32.299Z,10.25
2018-06-02T04:47:38.087Z,11.00
2018-06-02T04:48:43.861Z,11.07
2018-06-02T04:49:50.625Z,10.45
2018-06-02T04:50:57.208Z,9.82
2018-06-02T04:52:04.223Z,9.70
2018-06-02T04:53:09.973Z,9.65
2018-06-02T04:54:15.739Z,9.93
2018-06-02T04:55:22.272Z,10.07
2018-06-02T04:56:28.559Z,10.07
2018-06-02T04:57:35.106Z,10.45
2018-06-02T04:58:40.863Z,9.52
2018-06-02T04:59:47.391Z,10.95
2018-06-02T05:00:53.172Z,9.80
2018-06-02T05:01:59.735Z,10.88
2018-06-02T05:03:05.592Z,10.50
2018-06-02T05:04:11.339Z,9.60
2018-06-02T05:05:17.099Z,10.18
2018-06-02T05:06:22.859Z,10.13
2018-06-02T05:07:28.703Z,10.10
2018-06-02T05:08:34.455Z,9.73
2018-06-02T05:09:40.238Z,10.13
2018-06-02T05:10:46.001Z,10.07
2018-06-02T05:11:51.850Z,10.25
2018-06-02T05:12:57.654Z,10.40
2018-06-02T05:14:04.219Z,10.57
2018-06-02T05:15:10.761Z,10.77
2018-06-02T05:16:16.727Z,10.27
2018-06-02T05:17:22.498Z,10.40
2018-06-02T05:18:28.286Z,10.98
2018-06-02T05:19:34.809Z,10.68
2018-06-02T05:20:40.761Z,9.50
2018-06-02T05:21:46.518Z,10.73
2018-06-02T05:22:53.819Z,11.10
2018-06-02T05:24:00.372Z,10.82
2018-06-02T05:25:06.157Z,10.50
2018-06-02T05:26:11.926Z,10.20
2018-06-02T05:27:17.681Z,10.55
2018-06-02T05:28:23.488Z,10.50
2018-06-02T05:29:29.267Z,10.77
2018-06-02T05:30:35.040Z,11.90
2018-06-02T05:31:41.567Z,10.82
2018-06-02T05:32:48.110Z,11.15
2018-06-02T05:33:53.893Z,11.50
2018-06-02T05:35:00.455Z,10.95
2018-06-02T05:36:06.988Z,10.88
2018-06-02T05:37:12.752Z,10.00
2018-06-02T05:38:19.279Z,10.38
2018-06-02T05:39:25.053Z,10.98
2018-06-02T05:40:30.298Z,10.68
2018-06-02T05:41:36.819Z,10.80
2018-06-02T05:42:42.584Z,10.38
2018-06-02T05:43:49.130Z,14.57
2018-06-02T05:44:54.916Z,11.45
2018-06-02T05:46:00.821Z,10.48
2018-06-02T05:47:07.112Z,10.25
2018-06-02T05:48:12.879Z,10.60
2018-06-02T05:49:18.641Z,10.75
2018-06-02T05:50:24.685Z,10.15
2018-06-02T05:51:30.468Z,10.85
2018-06-02T05:52:37.027Z,10.00
2018-06-02T05:53:43.558Z,10.07
2018-06-02T05:54:49.415Z,9.90
2018-06-02T05:55:54.839Z,9.65
2018-06-02T05:57:00.635Z,11.38
2018-06-02T05:58:06.398Z,10.32
2018-06-02T05:59:12.187Z,9.77
2018-06-02T06:00:18.738Z,11.40
2018-06-02T06:01:24.588Z,10.00
2018-06-02T06:02:31.175Z,10.05
2018-06-02T06:03:36.982Z,10.43
2018-06-02T06:04:42.769Z,10.88
2018-06-02T06:05:48.528Z,10.57
2018-06-02T06:06:54.335Z,9.63
2018-06-02T06:08:00.298Z,10.40
2018-06-02T06:09:06.039Z,10.70
2018-06-02T06:10:11.804Z,10.70
2018-06-02T06:11:17.574Z,10.30
2018-06-02T06:12:23.336Z,10.93
2018-06-02T06:13:29.895Z,10.65
2018-06-02T06:14:36.427Z,12.25
2018-06-02T06:15:42.213Z,9.10
2018-06-02T06:16:47.979Z,10.00
2018-06-02T06:17:53.759Z,9.10
2018-06-02T06:18:59.545Z,10.32
2018-06-02T06:20:04.996Z,10.48
2018-06-02T06:21:10.752Z,9.85
2018-06-02T06:22:16.522Z,11.10
2018-06-02T06:23:23.809Z,11.15
2018-06-02T06:24:31.121Z,10.00
2018-06-02T06:25:36.927Z,11.90
2018-06-02T06:26:42.700Z,9.75
2018-06-02T06:27:48.464Z,11.30
2018-06-02T06:28:54.244Z,11.23
2018-06-02T06:30:00.046Z,11.55
2018-06-02T06:31:05.587Z,11.88
2018-06-02T06:32:11.410Z,10.40
2018-06-02T06:33:17.179Z,11.32
2018-06-02T06:34:22.955Z,11.90
2018-06-02T06:35:28.949Z,11.60
2018-06-02T06:36:34.708Z,10.85
2018-06-02T06:37:40.488Z,12.02
2018-06-02T06:38:47.031Z,13.73
2018-06-02T06:39:52.808Z,12.68
2018-06-02T06:40:59.099Z,11.00
2018-06-02T06:42:04.885Z,13.70
2018-06-02T06:43:11.431Z,12.55
2018-06-02T06:44:17.211Z,12.80
2018-06-02T06:45:23.003Z,11.85
2018-06-02T06:46:28.866Z,12.20
2018-06-02T06:47:34.795Z,13.80
2018-06-02T06:48:40.586Z,11.25
2018-06-02T06:49:47.117Z,12.10
2018-06-02T06:50:52.888Z,12.48
2018-06-02T06:51:58.689Z,11.80
2018-06-02T06:53:04.464Z,12.63
2018-06-02T06:54:10.007Z,11.55
2018-06-02T06:55:16.522Z,13.65
2018-06-02T06:56:22.286Z,10.82
2018-06-02T06:57:28.075Z,12.13
2018-06-02T06:58:33.841Z,13.52
2018-06-02T06:59:39.619Z,11.27
2018-06-02T07:00:46.166Z,12.88
2018-06-02T07:01:51.934Z,11.60
2018-06-02T07:02:58.491Z,10.90
2018-06-02T07:04:05.045Z,14.10
2018-06-02T07:05:11.635Z,13.50
2018-06-02T07:06:17.607Z,13.62
2018-06-02T07:07:23.384Z,13.75
2018-06-02T07:08:29.182Z,12.63
2018-06-02T07:09:34.955Z,13.60
2018-06-02T07:10:40.515Z,11.65
2018-06-02T07:11:47.076Z,11.82
2018-06-02T07:12:53.032Z,12.98
2018-06-02T07:13:59.699Z,14.65
2018-06-02T07:15:05.900Z,10.90
2018-06-02T07:16:11.884Z,12.48
2018-06-02T07:17:17.651Z,12.50
2018-06-02T07:18:23.439Z,11.75
2018-06-02T07:19:29.350Z,11.98
2018-06-02T07:20:35.126Z,12.88
2018-06-02T07:21:40.744Z,13.85
2018-06-02T07:22:46.782Z,15.43
2018-06-02T07:23:52.564Z,16.50
2018-06-02T07:24:59.146Z,12.82
2018-06-02T07:26:05.359Z,12.77
2018-06-02T07:27:11.143Z,14.23
2018-06-02T07:28:17.726Z,14.65
2018-06-02T07:29:24.492Z,12.35
2018-06-02T07:30:30.489Z,13.50
2018-06-02T07:31:37.040Z,14.02
2018-06-02T07:32:42.824Z,13.25
2018-06-02T07:33:49.430Z,15.75
2018-06-02T07:34:55.237Z,13.52
2018-06-02T07:36:00.899Z,15.05
2018-06-02T07:37:07.464Z,14.55
2018-06-02T07:38:13.334Z,13.30
2018-06-02T07:39:19.977Z,13.65
2018-06-02T07:40:25.794Z,13.85
2018-06-02T07:41:31.673Z,15.60
2018-06-02T07:42:37.442Z,12.23
2018-06-02T07:43:44.018Z,12.63
2018-06-02T07:44:50.557Z,14.90
2018-06-02T07:45:57.836Z,11.85
2018-06-02T07:47:03.643Z,15.50
2018-06-02T07:48:09.428Z,16.75
2018-06-02T07:49:15.992Z,16.77
2018-06-02T07:50:22.543Z,16.02
2018-06-02T07:51:29.082Z,14.07
2018-06-02T07:52:34.844Z,13.98
2018-06-02T07:53:41.407Z,15.77
2018-06-02T07:54:47.031Z,13.52
2018-06-02T07:55:52.828Z,12.95
2018-06-02T07:56:58.768Z,17.60
2018-06-02T07:58:04.576Z,15.63
2018-06-02T07:59:11.113Z,13.05
2018-06-02T08:00:16.900Z,16.60
2018-06-02T08:01:22.719Z,12.32
2018-06-02T08:02:28.492Z,13.38
2018-06-02T08:03:34.312Z,15.77
2018-06-02T08:04:40.853Z,12.90
2018-06-02T08:05:46.626Z,12.37
2018-06-02T08:06:52.427Z,14.65
2018-06-02T08:07:58.190Z,14.57
2018-06-02T08:09:04.479Z,13.27
2018-06-02T08:10:10.323Z,14.80
2018-06-02T08:11:16.110Z,15.20
2018-06-02T08:12:22.670Z,14.45
2018-06-02T08:13:29.044Z,14.60
2018-06-02T08:14:35.620Z,16.48
2018-06-02T08:15:42.180Z,16.45
2018-06-02T08:16:48.727Z,14.82
2018-06-02T08:17:54.495Z,15.90
2018-06-02T08:19:01.063Z,12.25
2018-06-02T08:20:07.439Z,13.50
2018-06-02T08:21:13.304Z,14.45
2018-06-02T08:22:19.084Z,11.23
2018-06-02T08:23:24.864Z,12.35
2018-06-02T08:24:30.632Z,16.55
2018-06-02T08:25:36.507Z,12.90
2018-06-02T08:26:42.304Z,12.35
2018-06-02T08:27:48.267Z,13.93
2018-06-02T08:28:54.106Z,14.48
2018-06-02T08:29:59.934Z,11.85
2018-06-02T08:31:05.846Z,14.55
2018-06-02T08:32:12.445Z,12.70
2018-06-02T08:33:19.322Z,15.18
2018-06-02T08:34:25.867Z,12.85
2018-06-02T08:35:31.787Z,14.87
2018-06-02T08:36:37.615Z,13.20
2018-06-02T08:37:43.439Z,11.45
2018-06-02T08:38:50.030Z,13.35
2018-06-02T08:39:55.800Z,14.05
2018-06-02T08:41:01.613Z,13.88
2018-06-02T08:42:08.332Z,11.52
2018-06-02T08:43:14.882Z,11.88
2018-06-02T08:44:23.014Z,11.30
2018-06-02T08:45:28.797Z,12.93
2018-06-02T08:46:35.009Z,14.70
2018-06-02T08:47:40.869Z,14.50
2018-06-02T08:48:46.650Z,10.77
2018-06-02T08:49:52.773Z,12.48
2018-06-02T08:50:59.348Z,14.80
2018-06-02T08:52:06.255Z,13.93
2018-06-02T08:53:12.081Z,16.70
2018-06-02T08:54:18.749Z,13.13
2018-06-02T08:55:24.688Z,15.25
2018-06-02T08:56:32.231Z,16.45
2018-06-02T08:57:38.765Z,18.58
2018-06-02T08:58:44.573Z,15.32
2018-06-02T08:59:51.143Z,15.95
2018-06-02T09:00:57.694Z,16.87
2018-06-02T09:02:04.228Z,18.25
2018-06-02T09:03:10.010Z,18.42
2018-06-02T09:04:16.587Z,17.02
2018-06-02T09:05:22.399Z,15.38
2018-06-02T09:06:28.411Z,17.48
2018-06-02T09:07:34.376Z,17.00
2018-06-02T09:08:40.938Z,16.65
2018-06-02T09:09:46.782Z,13.65
2018-06-02T09:10:53.355Z,13.18
2018-06-02T09:12:00.957Z,12.75
2018-06-02T09:13:07.524Z,13.15
2018-06-02T09:14:13.297Z,16.27
2018-06-02T09:15:20.149Z,16.15
2018-06-02T09:16:25.934Z,15.85
2018-06-02T09:17:32.615Z,14.13
2018-06-02T09:18:38.392Z,17.33
2018-06-02T09:19:44.468Z,17.23
2018-06-02T09:20:50.119Z,15.43
2018-06-02T09:21:56.888Z,16.77
2018-06-02T09:23:06.250Z,16.25
2018-06-02T09:24:12.912Z,18.37
2018-06-02T09:25:19.623Z,16.37
2018-06-02T09:26:25.626Z,14.30
2018-06-02T09:27:32.508Z,17.27
2018-06-02T09:28:38.661Z,17.35
2018-06-02T09:29:46.550Z,16.48
2018-06-02T09:30:52.598Z,17.62
2018-06-02T09:31:58.480Z,15.63
2018-06-02T09:33:06.103Z,18.90
2018-06-02T09:34:13.195Z,13.65
2018-06-02T09:35:20.135Z,15.82
2018-06-02T09:36:26.540Z,18.85
2018-06-02T09:37:38.406Z,21.60
2018-06-02T09:38:44.358Z,18.80
2018-06-02T09:39:51.432Z,18.83
2018-06-02T09:40:58.292Z,22.83
2018-06-02T09:42:05.066Z,21.70
2018-06-02T09:43:11.821Z,19.50
2018-06-02T09:44:18.536Z,23.45
2018-06-02T09:45:26.463Z,25.73
2018-06-02T09:46:34.538Z,21.02
2018-06-02T09:47:42.591Z,19.58
2018-06-02T09:48:49.442Z,24.05
2018-06-02T09:49:56.515Z,19.48
2018-06-02T09:51:03.285Z,19.12
2018-06-02T09:52:09.944Z,19.83
2018-06-02T09:53:16.099Z,19.80
2018-06-02T09:54:22.255Z,21.35
2018-06-02T09:55:28.874Z,17.33
2018-06-02T09:56:35.801Z,22.58
2018-06-02T09:57:42.243Z,19.08
2018-06-02T09:58:49.406Z,18.48
2018-06-02T09:59:55.561Z,20.42
2018-06-02T10:01:03.833Z,17.92
2018-06-02T10:02:10.382Z,19.98
2018-06-02T10:03:18.129Z,18.75
2018-06-02T10:04:24.164Z,19.25
2018-06-02T10:05:31.860Z,22.90
2018-06-02T10:06:37.860Z,17.62
2018-06-02T10:07:46.956Z,18.40
2018-06-02T10:08:52.787Z,20.10
2018-06-02T10:09:59.894Z,19.05
2018-06-02T10:11:08.103Z,19.65
2018-06-02T10:12:14.209Z,20.00
2018-06-02T10:13:20.079Z,18.77
2018-06-02T10:14:26.201Z,19.37
2018-06-02T10:15:32.019Z,17.73
2018-06-02T10:16:38.265Z,17.98
2018-06-02T10:17:44.185Z,19.77
2018-06-02T10:18:49.973Z,16.65
2018-06-02T10:19:56.618Z,16.15
2018-06-02T10:21:02.733Z,17.00
2018-06-02T10:22:08.906Z,17.33
2018-06-02T10:23:14.776Z,17.45
2018-06-02T10:24:22.242Z,16.10
2018-06-02T10:25:29.137Z,15.65
2018-06-02T10:26:35.174Z,16.60
2018-06-02T10:27:42.139Z,15.80
2018-06-02T10:28:48.612Z,14.93
2018-06-02T10:29:55.648Z,15.68
2018-06-02T10:31:01.608Z,15.70
2018-06-02T10:32:08.038Z,16.62
2018-06-02T10:33:14.090Z,17.12
2018-06-02T10:34:20.192Z,15.68
2018-06-02T10:35:26.825Z,14.40
2018-06-02T10:36:32.748Z,14.98
2018-06-02T10:37:38.689Z,14.85
2018-06-02T10:38:46.246Z,15.18
2018-06-02T10:39:54.496Z,14.35
2018-06-02T10:41:00.538Z,16.12
2018-06-02T10:42:06.738Z,14.95
2018-06-02T10:43:14.119Z,16.08
2018-06-02T10:44:19.912Z,16.45
2018-06-02T10:45:27.604Z,15.38
2018-06-02T10:46:34.579Z,14.50
2018-06-02T10:47:40.557Z,14.15
2018-06-02T10:48:46.357Z,14.43
2018-06-02T10:49:52.211Z,14.32
2018-06-02T10:50:58.225Z,13.85
2018-06-02T10:52:05.023Z,13.00
2018-06-02T10:53:11.469Z,14.35
2018-06-02T10:54:17.318Z,12.98
2018-06-02T10:55:23.270Z,13.32
2018-06-02T10:56:30.138Z,14.27
2018-06-02T10:57:36.288Z,13.70
2018-06-02T10:58:42.180Z,12.25
2018-06-02T10:59:48.102Z,13.30
2018-06-02T11:00:54.432Z,12.35
2018-06-02T11:02:00.859Z,12.60
2018-06-02T11:03:09.056Z,12.88
2018-06-02T11:04:15.719Z,11.05
2018-06-02T11:05:24.302Z,11.12
2018-06-02T11:06:30.696Z,10.60
2018-06-02T11:07:37.345Z,11.63
2018-06-02T11:08:45.478Z,10.93
2018-06-02T11:09:54.204Z,11.30
2018-06-02T11:11:01.286Z,12.18
2018-06-02T11:12:09.683Z,11.85
2018-06-02T11:13:16.727Z,10.60
2018-06-02T11:14:22.632Z,11.52
2018-06-02T11:15:28.607Z,11.52
2018-06-02T11:16:34.538Z,10.55
2018-06-02T11:17:42.186Z,11.40
2018-06-02T11:18:48.459Z,11.15
2018-06-02T11:19:54.610Z,10.13
2018-06-02T11:21:00.829Z,10.70
2018-06-02T11:22:06.867Z,9.10
2018-06-02T11:23:14.492Z,10.68
2018-06-02T11:24:21.431Z,10.60
2018-06-02T11:25:27.672Z,11.30
2018-06-02T11:26:33.820Z,11.95
2018-06-02T11:27:39.877Z,10.48
2018-06-02T11:28:46.137Z,11.98
2018-06-02T11:29:52.378Z,11.48
2018-06-02T11:30:58.468Z,11.85
2018-06-02T11:32:05.485Z,10.50
2018-06-02T11:33:11.707Z,11.65
2018-06-02T11:34:19.507Z,11.70
2018-06-02T11:35:26.533Z,10.38
2018-06-02T11:36:32.657Z,11.32
2018-06-02T11:37:39.457Z,11.60
2018-06-02T11:38:45.638Z,11.63
2018-06-02T11:39:51.785Z,11.15
2018-06-02T11:40:58.805Z,12.00
2018-06-02T11:42:05.002Z,11.52
2018-06-02T11:43:12.780Z,11.38
2018-06-02T11:44:18.896Z,11.20
2018-06-02T11:45:25.860Z,11.65
2018-06-02T11:46:33.034Z,11.70
2018-06-02T11:47:40.107Z,11.80
2018-06-02T11:48:46.637Z,12.18
2018-06-02T11:49:52.553Z,12.35
2018-06-02T11:51:00.353Z,13.82
2018-06-02T11:52:07.445Z,12.80
2018-06-02T11:53:13.317Z,12.50
2018-06-02T11:54:19.469Z,13.30
2018-06-02T11:55:25.720Z,13.43
2018-06-02T11:56:31.873Z,13.80
2018-06-02T11:57:37.926Z,13.73
2018-06-02T11:58:43.970Z,14.15
2018-06-02T11:59:50.021Z,15.23
2018-06-02T12:00:55.985Z,15.02
2018-06-02T12:02:02.207Z,16.90
2018-06-02T12:03:09.254Z,16.42
2018-06-02T12:04:15.890Z,14.48
2018-06-02T12:05:23.330Z,15.20
2018-06-02T12:06:29.241Z,15.15
2018-06-02T12:07:36.166Z,16.02
2018-06-02T12:08:42.362Z,14.85
2018-06-02T12:09:49.124Z,16.52
2018-06-02T12:10:56.389Z,15.55
2018-06-02T12:12:02.748Z,14.80
2018-06-02T12:13:10.825Z,15.75
2018-06-02T12:14:17.758Z,15.52
2018-06-02T12:15:23.838Z,16.05
2018-06-02T12:16:29.749Z,16.30
2018-06-02T12:17:37.706Z,17.73
2018-06-02T12:18:44.009Z,14.70
2018-06-02T12:19:50.217Z,16.80
2018-06-02T12:20:56.506Z,17.23
2018-06-02T12:22:02.576Z,17.85
2018-06-02T12:23:08.554Z,17.15
2018-06-02T12:24:14.655Z,17.80
2018-06-02T12:25:20.874Z,16.40
2018-06-02T12:26:26.879Z,17.35
2018-06-02T12:27:32.918Z,19.17
2018-06-02T12:28:39.051Z,17.75
2018-06-02T12:29:45.485Z,56.37
2018-06-02T12:30:52.243Z,17.90
2018-06-02T12:31:58.156Z,17.80
2018-06-02T12:33:04.882Z,18.87
2018-06-02T12:34:11.034Z,19.55
2018-06-02T12:35:17.044Z,18.83
2018-06-02T12:36:23.853Z,21.60
2018-06-02T12:37:29.995Z,20.05
2018-06-02T12:38:36.152Z,20.42
2018-06-02T12:39:42.299Z,20.75
2018-06-02T12:40:50.296Z,21.98
2018-06-02T12:41:56.443Z,22.45
2018-06-02T12:43:02.474Z,22.42
2018-06-02T12:44:08.557Z,21.75
2018-06-02T12:45:14.611Z,23.45
2018-06-02T12:46:20.637Z,23.62
2018-06-02T12:47:26.231Z,24.37
2018-06-02T12:48:33.346Z,26.02
2018-06-02T12:49:39.387Z,25.65
2018-06-02T12:50:45.368Z,24.60
2018-06-02T12:51:51.480Z,26.55
2018-06-02T12:52:57.973Z,22.92
2018-06-02T12:54:04.499Z,21.60
2018-06-02T12:55:11.342Z,24.17
2018-06-02T12:56:17.928Z,21.85
2018-06-02T12:57:24.065Z,21.37
2018-06-02T12:58:30.265Z,23.83
2018-06-02T12:59:36.947Z,23.77
2018-06-02T13:00:43.661Z,22.92
2018-06-02T13:01:49.746Z,21.50
2018-06-02T13:02:57.292Z,23.40
2018-06-02T13:04:03.337Z,22.98
2018-06-02T13:05:09.345Z,23.25
2018-06-02T13:06:15.488Z,23.48
2018-06-02T13:07:22.292Z,28.87
2018-06-02T13:08:28.201Z,23.40
2018-06-02T13:09:35.850Z,24.15
2018-06-02T13:10:41.972Z,21.98
2018-06-02T13:11:48.428Z,22.85
2018-06-02T13:12:54.687Z,22.67
2018-06-02T13:14:00.946Z,21.12
2018-06-02T13:15:08.126Z,19.73
2018-06-02T13:16:14.374Z,22.55
2018-06-02T13:17:20.424Z,20.65
2018-06-02T13:18:26.576Z,20.37
2018-06-02T13:19:32.849Z,21.27
2018-06-02T13:20:39.189Z,20.77
2018-06-02T13:21:45.802Z,21.10
2018-06-02T13:22:52.917Z,21.25
2018-06-02T13:23:59.989Z,22.33
2018-06-02T13:25:05.828Z,19.77
2018-06-02T13:26:11.919Z,21.48
2018-06-02T13:27:18.720Z,21.05
2018-06-02T13:28:25.636Z,20.85
2018-06-02T13:29:31.768Z,21.48
2018-06-02T13:30:37.825Z,19.52
2018-06-02T13:31:44.082Z,21.00
2018-06-02T13:32:50.122Z,19.92
2018-06-02T13:33:56.146Z,20.50
2018-06-02T13:35:02.126Z,19.70
2018-06-02T13:36:08.204Z,18.15
2018-06-02T13:37:14.256Z,19.55
2018-06-02T13:38:21.983Z,19.73
2018-06-02T13:39:27.943Z,18.55
2018-06-02T13:40:34.024Z,18.87
2018-06-02T13:41:39.956Z,19.08
2018-06-02T13:42:45.981Z,19.90
2018-06-02T13:43:52.015Z,18.83
2018-06-02T13:44:58.635Z,19.27
2018-06-02T13:46:04.749Z,19.62
2018-06-02T13:47:10.897Z,18.00
2018-06-02T13:48:17.059Z,18.65
2018-06-02T13:49:23.828Z,18.90
2018-06-02T13:50:29.801Z,19.10
2018-06-02T13:51:36.923Z,18.73
2018-06-02T13:52:43.018Z,18.00
2018-06-02T13:53:49.448Z,19.02
2018-06-02T13:54:55.503Z,17.17
2018-06-02T13:56:01.572Z,19.08
2018-06-02T13:57:07.688Z,17.50
2018-06-02T13:58:13.729Z,16.77
2018-06-02T13:59:21.525Z,18.48
2018-06-02T14:00:27.502Z,17.48
2018-06-02T14:01:33.416Z,16.70
2018-06-02T14:02:39.324Z,17.20
2018-06-02T14:03:46.136Z,18.20
2018-06-02T14:04:52.149Z,17.35
2018-06-02T14:05:58.135Z,16.37
2018-06-02T14:07:04.424Z,17.65
2018-06-02T14:08:10.276Z,16.37
2018-06-02T14:09:17.086Z,16.17
2018-06-02T14:10:23.100Z,16.83
2018-06-02T14:11:29.751Z,13.77
2018-06-02T14:12:37.083Z,15.60
2018-06-02T14:13:42.909Z,13.77
2018-06-02T14:14:48.903Z,15.15
2018-06-02T14:15:54.715Z,13.55
2018-06-02T14:17:00.490Z,14.93
2018-06-02T14:18:07.658Z,13.88
2018-06-02T14:19:14.274Z,12.00
2018-06-02T14:20:20.527Z,14.20
2018-06-02T14:21:26.589Z,12.75
2018-06-02T14:22:33.293Z,12.07